Time;durP1;ratioP1;P1;durP2;ratioP2;P2;SDS_P1;SDS_P2;PMS_P1;PMS_P2;Temp;Humidity;BMP_temperature;BMP_pressure;BME280_temperature;BME280_humidity;BME280_pressure;Samples;Min_cycle;Max_cycle;Signal;HPM_P1;HPM_P2
2023/03/01 00:01:06;;;;;;;5.70;3.80;;;;;;;;;;105194;1255;60447;-46
2023/03/01 00:03:34;;;;;;;6.40;3.40;;;;;;;;;;105066;1256;60922;-44
2023/03/01 00:06:02;;;;;;;7.30;4.20;;;;;;;;;;106072;1254;59238;-45
2023/03/01 00:08:32;;;;;;;6.20;4.00;;;;;;;;;;105276;1252;60638;-43
2023/03/01 00:11:01;;;;;;;10.00;3.70;;;;;;;;;;104958;1255;60416;-45
2023/03/01 00:13:30;;;;;;;5.70;3.00;;;;;;;;;;106757;1256;60312;-45
2023/03/01 00:15:58;;;;;;;6.90;3.70;;;;;;;;;;105199;1254;63766;-46
2023/03/01 00:18:26;;;;;;;5.80;3.20;;;;;;;;;;105179;1258;60432;-44
2023/03/01 00:20:54;;;;;;;7.70;3.60;;;;;;;;;;105006;1255;60564;-46
2023/03/01 00:23:23;;;;;;;8.20;4.20;;;;;;;;;;105161;1255;60770;-48
2023/03/01 00:25:51;;;;;;;7.00;3.40;;;;;;;;;;106516;1258;58974;-45
2023/03/01 00:28:24;;;;;;;8.90;4.80;;;;;;;;;;104967;1254;60991;-43
2023/03/01 00:30:52;;;;;;;8.50;4.70;;;;;;;;;;104914;1257;60461;-45
2023/03/01 00:33:20;;;;;;;7.90;4.90;;;;;;;;;;104916;1258;60439;-46
2023/03/01 00:35:48;;;;;;;11.70;7.10;;;;;;;;;;104693;1258;60480;-46
2023/03/01 00:38:16;;;;;;;9.20;5.20;;;;;;;;;;105162;1255;60436;-44
2023/03/01 00:40:46;;;;;;;7.90;4.50;;;;;;;;;;104878;1256;62369;-46
2023/03/01 00:43:18;;;;;;;9.30;4.60;;;;;;;;;;104936;1258;60486;-45
2023/03/01 00:45:46;;;;;;;6.70;4.40;;;;;;;;;;104906;1254;61297;-44
2023/03/01 00:48:15;;;;;;;8.10;4.70;;;;;;;;;;104823;1257;60353;-45
2023/03/01 00:50:43;;;;;;;12.20;6.30;;;;;;;;;;104921;1255;60486;-43
2023/03/01 00:53:11;;;;;;;10.10;5.80;;;;;;;;;;104837;1258;62045;-46
2023/03/01 00:55:39;;;;;;;10.40;4.90;;;;;;;;;;105214;1257;60573;-45
2023/03/01 00:58:07;;;;;;;9.50;5.90;;;;;;;;;;105295;1256;61013;-45
2023/03/01 01:00:35;;;;;;;10.30;5.90;;;;;;;;;;105005;1258;60304;-46
2023/03/01 01:03:04;;;;;;;7.30;4.30;;;;;;;;;;105160;1255;60515;-45
2023/03/01 01:05:34;;;;;;;8.60;4.10;;;;;;;;;;104801;1255;62292;-44
2023/03/01 01:08:02;;;;;;;8.60;4.30;;;;;;;;;;108130;1258;60419;-48
2023/03/01 01:10:30;;;;;;;7.10;4.00;;;;;;;;;;105295;1256;60772;-45
2023/03/01 01:13:02;;;;;;;8.20;3.90;;;;;;;;;;104984;1258;60643;-47
2023/03/01 01:15:34;;;;;;;7.90;4.00;;;;;;;;;;105019;1257;60413;-45
2023/03/01 01:18:02;;;;;;;10.50;4.50;;;;;;;;;;104770;1255;62088;-45
2023/03/01 01:20:30;;;;;;;6.70;3.20;;;;;;;;;;104890;1258;60998;-44
2023/03/01 01:22:59;;;;;;;5.70;3.60;;;;;;;;;;105100;1254;60752;-47
2023/03/01 01:25:33;;;;;;;10.50;5.20;;;;;;;;;;104867;1253;62118;-45
2023/03/01 01:28:01;;;;;;;7.50;4.20;;;;;;;;;;106201;1257;61029;-46
2023/03/01 01:30:29;;;;;;;10.20;4.30;;;;;;;;;;104855;1258;62128;-44
2023/03/01 01:32:57;;;;;;;6.10;3.70;;;;;;;;;;105080;1258;60381;-44
2023/03/01 01:35:26;;;;;;;4.30;2.70;;;;;;;;;;105368;1256;60807;-46
2023/03/01 01:37:54;;;;;;;6.50;3.70;;;;;;;;;;106656;1256;59445;-49
2023/03/01 01:40:22;;;;;;;5.10;3.50;;;;;;;;;;105118;1254;60442;-46
2023/03/01 01:42:50;;;;;;;8.60;3.00;;;;;;;;;;105032;1258;61852;-45
2023/03/01 01:45:30;;;;;;;6.30;3.00;;;;;;;;;;105259;1258;60433;-46
2023/03/01 01:48:02;;;;;;;5.00;2.90;;;;;;;;;;105073;1258;60538;-47
2023/03/01 01:50:37;;;;;;;6.70;3.20;;;;;;;;;;105002;1258;60545;-45
2023/03/01 01:53:08;;;;;;;8.10;3.10;;;;;;;;;;106078;1258;60491;-44
2023/03/01 01:55:40;;;;;;;9.50;4.60;;;;;;;;;;104866;1254;60850;-43
2023/03/01 01:58:09;;;;;;;6.50;3.40;;;;;;;;;;105205;1256;60411;-44
2023/03/01 02:00:37;;;;;;;6.00;3.90;;;;;;;;;;107449;1256;60893;-47
2023/03/01 02:03:09;;;;;;;8.20;4.20;;;;;;;;;;107402;1256;60352;-43
2023/03/01 02:05:44;;;;;;;8.20;4.40;;;;;;;;;;106159;1255;60436;-45
2023/03/01 02:08:12;;;;;;;6.90;3.50;;;;;;;;;;105182;1257;62260;-43
2023/03/01 02:10:40;;;;;;;5.70;3.60;;;;;;;;;;105709;1257;60395;-46
2023/03/01 02:13:09;;;;;;;9.30;4.50;;;;;;;;;;105055;1254;60457;-44
2023/03/01 02:15:38;;;;;;;13.00;4.70;;;;;;;;;;105113;1258;60430;-46
2023/03/01 02:18:09;;;;;;;10.90;5.20;;;;;;;;;;105858;1253;60436;-46
2023/03/01 02:20:40;;;;;;;13.10;5.70;;;;;;;;;;105008;1252;145195;-44
2023/03/01 02:25:20;;;;;;;13.00;6.20;;;;;;;;;;102078;1288;601306;-47
2023/03/01 02:27:58;;;;;;;8.30;4.70;;;;;;;;;;104323;1266;59026;-47
2023/03/01 02:30:26;;;;;;;9.20;4.40;;;;;;;;;;104269;1269;59066;-47
2023/03/01 02:32:54;;;;;;;7.80;4.70;;;;;;;;;;104181;1263;60374;-47
2023/03/01 02:35:23;;;;;;;10.20;5.30;;;;;;;;;;104561;1264;59150;-45
2023/03/01 02:37:50;;;;;;;9.10;5.00;;;;;;;;;;104348;1269;202096;-46
2023/03/01 02:40:21;;;;;;;8.50;3.90;;;;;;;;;;104915;1266;59396;-42
2023/03/01 02:42:53;;;;;;;7.90;4.20;;;;;;;;;;104604;1264;59068;-45
2023/03/01 02:45:22;;;;;;;8.80;4.60;;;;;;;;;;104300;1263;60518;-45
2023/03/01 02:47:53;;;;;;;7.30;3.90;;;;;;;;;;104436;1264;59167;-44
2023/03/01 02:50:27;;;;;;;7.60;4.10;;;;;;;;;;104516;1266;60741;-46
2023/03/01 02:52:58;;;;;;;7.80;3.80;;;;;;;;;;104330;1266;59819;-46
2023/03/01 02:55:27;;;;;;;9.60;4.20;;;;;;;;;;104635;1269;59698;-46
2023/03/01 02:57:55;;;;;;;7.00;3.90;;;;;;;;;;104734;1264;61354;-47
2023/03/01 03:00:26;;;;;;;7.90;3.50;;;;;;;;;;104806;1263;59095;-45
2023/03/01 03:02:54;;;;;;;7.70;4.10;;;;;;;;;;104655;1264;60815;-45
2023/03/01 03:05:27;;;;;;;9.90;5.50;;;;;;;;;;104434;1267;59719;-46
2023/03/01 03:08:00;;;;;;;9.60;4.50;;;;;;;;;;104637;1266;59644;-45
2023/03/01 03:10:31;;;;;;;7.10;5.00;;;;;;;;;;104341;1264;61486;-46
2023/03/01 03:13:08;;;;;;;10.40;5.10;;;;;;;;;;104509;1266;59552;-48
2023/03/01 03:15:38;;;;;;;9.30;5.20;;;;;;;;;;104646;1267;59808;-47
2023/03/01 03:18:09;;;;;;;10.40;5.20;;;;;;;;;;104695;1264;59595;-45
2023/03/01 03:20:37;;;;;;;10.80;4.60;;;;;;;;;;104390;1264;59657;-47
2023/03/01 03:23:05;;;;;;;8.30;4.30;;;;;;;;;;104314;1269;62027;-46
2023/03/01 03:25:37;;;;;;;8.70;4.40;;;;;;;;;;104493;1266;59632;-46
2023/03/01 03:28:09;;;;;;;8.10;5.00;;;;;;;;;;105360;1264;61300;-47
2023/03/01 03:30:38;;;;;;;9.10;4.90;;;;;;;;;;104464;1262;59635;-46
2023/03/01 03:33:06;;;;;;;7.40;4.20;;;;;;;;;;104528;1264;59660;-47
2023/03/01 03:35:38;;;;;;;8.20;4.40;;;;;;;;;;104799;1265;61483;-47
2023/03/01 03:38:09;;;;;;;11.70;4.40;;;;;;;;;;104492;1266;59620;-44
2023/03/01 03:40:37;;;;;;;10.50;5.40;;;;;;;;;;104426;1263;59763;-46
2023/03/01 03:43:19;;;;;;;8.70;3.90;;;;;;;;;;104492;1263;60533;-46
2023/03/01 03:45:48;;;;;;;11.20;5.50;;;;;;;;;;105056;1266;59573;-46
2023/03/01 03:48:16;;;;;;;10.60;5.50;;;;;;;;;;106363;1254;61424;-47
2023/03/01 03:50:47;;;;;;;10.10;6.00;;;;;;;;;;105032;1254;59829;-46
2023/03/01 03:53:15;;;;;;;7.90;4.70;;;;;;;;;;105419;1259;59870;-46
2023/03/01 03:55:44;;;;;;;10.10;5.30;;;;;;;;;;105508;1258;59634;-47
2023/03/01 03:58:12;;;;;;;7.90;4.70;;;;;;;;;;104953;1260;59720;-43
2023/03/01 04:00:41;;;;;;;7.60;4.80;;;;;;;;;;107282;1254;61386;-46
2023/03/01 04:03:10;;;;;;;9.80;5.10;;;;;;;;;;104808;1254;59594;-47
2023/03/01 04:05:38;;;;;;;10.70;5.40;;;;;;;;;;104898;1259;60685;-47
2023/03/01 04:08:09;;;;;;;12.70;6.50;;;;;;;;;;104963;1255;59829;-47
2023/03/01 04:10:38;;;;;;;11.90;5.80;;;;;;;;;;105261;1259;59563;-46
2023/03/01 04:13:06;;;;;;;12.40;5.60;;;;;;;;;;105721;1261;61337;-47
2023/03/01 04:15:35;;;;;;;10.10;4.90;;;;;;;;;;105607;1260;59705;-47
2023/03/01 04:18:03;;;;;;;10.90;4.90;;;;;;;;;;105300;1259;61004;-48
2023/03/01 04:20:36;;;;;;;11.10;5.10;;;;;;;;;;104843;1260;59660;-48
2023/03/01 04:23:13;;;;;;;9.70;4.30;;;;;;;;;;106289;1259;59493;-47
2023/03/01 04:25:41;;;;;;;9.40;4.60;;;;;;;;;;105057;1260;61428;-47
2023/03/01 04:28:10;;;;;;;10.80;5.10;;;;;;;;;;105044;1257;60835;-47
2023/03/01 04:30:38;;;;;;;11.10;4.70;;;;;;;;;;105026;1255;60802;-46
2023/03/01 04:33:06;;;;;;;8.90;4.20;;;;;;;;;;104941;1259;59614;-45
2023/03/01 04:35:35;;;;;;;9.60;4.70;;;;;;;;;;108434;1254;57306;-47
2023/03/01 04:38:04;;;;;;;8.70;5.20;;;;;;;;;;105298;1254;61524;-46
2023/03/01 04:40:33;;;;;;;11.40;6.00;;;;;;;;;;105189;1260;59627;-45
2023/03/01 04:43:05;;;;;;;9.60;5.50;;;;;;;;;;104918;1260;60796;-45
2023/03/01 04:45:34;;;;;;;10.40;4.80;;;;;;;;;;105002;1260;59698;-44
2023/03/01 04:48:03;;;;;;;10.10;6.00;;;;;;;;;;105312;1257;59725;-45
2023/03/01 04:50:31;;;;;;;8.30;4.50;;;;;;;;;;105361;1258;61266;-46
2023/03/01 04:52:58;;;;;;;10.20;5.10;;;;;;;;;;105026;1259;59634;-47
2023/03/01 04:55:27;;;;;;;8.90;4.60;;;;;;;;;;105358;1260;60500;-45
2023/03/01 04:57:54;;;;;;;7.40;5.00;;;;;;;;;;105075;1260;59656;-43
2023/03/01 05:00:22;;;;;;;9.80;5.00;;;;;;;;;;105075;1258;59726;-46
2023/03/01 05:02:52;;;;;;;9.20;4.90;;;;;;;;;;106260;1260;61200;-45
2023/03/01 05:05:25;;;;;;;8.70;4.00;;;;;;;;;;105024;1259;60188;-47
2023/03/01 05:08:17;;;;;;;8.90;4.80;;;;;;;;;;104907;1259;61201;-47
2023/03/01 05:10:46;;;;;;;7.30;3.70;;;;;;;;;;105040;1259;59618;-46
2023/03/01 05:13:20;;;;;;;8.60;5.00;;;;;;;;;;104969;1260;59702;-46
2023/03/01 05:15:49;;;;;;;7.30;4.30;;;;;;;;;;104879;1254;60383;-47
2023/03/01 05:18:19;;;;;;;13.30;5.60;;;;;;;;;;104821;1257;59640;-47
2023/03/01 05:20:47;;;;;;;15.40;5.80;;;;;;;;;;104875;1260;60737;-46
2023/03/01 05:23:15;;;;;;;10.30;5.80;;;;;;;;;;104821;1260;59746;-46
2023/03/01 05:25:43;;;;;;;9.10;4.60;;;;;;;;;;105370;1260;60075;-47
2023/03/01 05:28:11;;;;;;;6.50;4.50;;;;;;;;;;104838;1254;61386;-48
2023/03/01 05:30:39;;;;;;;8.10;4.90;;;;;;;;;;104989;1260;59560;-44
2023/03/01 05:33:13;;;;;;;9.00;4.80;;;;;;;;;;104839;1258;60502;-45
2023/03/01 05:35:42;;;;;;;11.40;5.80;;;;;;;;;;107332;1255;59845;-45
2023/03/01 05:38:13;;;;;;;6.10;3.70;;;;;;;;;;104999;1254;59704;-46
2023/03/01 05:40:44;;;;;;;10.60;5.10;;;;;;;;;;105600;1260;61407;-46
2023/03/01 05:43:13;;;;;;;8.40;4.60;;;;;;;;;;105101;1263;60018;-46
2023/03/01 05:45:41;;;;;;;8.10;4.20;;;;;;;;;;105085;1259;60780;-47
2023/03/01 05:48:10;;;;;;;8.00;4.60;;;;;;;;;;105336;1260;59790;-45
2023/03/01 05:50:42;;;;;;;10.30;4.70;;;;;;;;;;106453;1259;58966;-45
2023/03/01 05:53:11;;;;;;;13.60;5.50;;;;;;;;;;105029;1257;61337;-47
2023/03/01 05:55:39;;;;;;;10.30;5.40;;;;;;;;;;105063;1256;61816;-46
2023/03/01 05:58:10;;;;;;;8.20;4.80;;;;;;;;;;105045;1255;61039;-48
2023/03/01 06:00:38;;;;;;;8.90;5.70;;;;;;;;;;105152;1259;59055;-46
2023/03/01 06:03:12;;;;;;;8.60;5.50;;;;;;;;;;104934;1260;60556;-46
2023/03/01 06:05:40;;;;;;;9.30;4.70;;;;;;;;;;106529;1260;61193;-47
2023/03/01 06:08:09;;;;;;;10.20;4.80;;;;;;;;;;105029;1259;59628;-47
2023/03/01 06:10:40;;;;;;;8.10;4.70;;;;;;;;;;105127;1259;60793;-48
2023/03/01 06:13:09;;;;;;;10.70;5.60;;;;;;;;;;104859;1255;59622;-47
2023/03/01 06:15:41;;;;;;;10.00;5.40;;;;;;;;;;104923;1259;59657;-47
2023/03/01 06:18:09;;;;;;;8.90;5.40;;;;;;;;;;105989;1254;61622;-46
2023/03/01 06:20:37;;;;;;;12.70;5.60;;;;;;;;;;104891;1258;59736;-46
2023/03/01 06:23:06;;;;;;;7.70;4.90;;;;;;;;;;104971;1260;60854;-48
2023/03/01 06:25:36;;;;;;;9.90;5.30;;;;;;;;;;106618;1258;60103;-46
2023/03/01 06:28:08;;;;;;;11.00;5.80;;;;;;;;;;105045;1254;59800;-48
2023/03/01 06:30:36;;;;;;;9.70;5.00;;;;;;;;;;104880;1259;61570;-48
2023/03/01 06:33:06;;;;;;;10.40;5.60;;;;;;;;;;104713;1260;59617;-47
2023/03/01 06:35:34;;;;;;;9.80;5.10;;;;;;;;;;107952;1256;60704;-47
2023/03/01 06:38:03;;;;;;;14.40;5.10;;;;;;;;;;105005;1260;60440;-43
2023/03/01 06:40:35;;;;;;;9.20;4.70;;;;;;;;;;105899;1260;60329;-48
2023/03/01 06:43:03;;;;;;;10.50;4.60;;;;;;;;;;105019;1259;62128;-47
2023/03/01 06:45:33;;;;;;;11.20;5.70;;;;;;;;;;104853;1261;60492;-48
2023/03/01 06:48:03;;;;;;;9.70;6.30;;;;;;;;;;104911;1257;60735;-47
2023/03/01 06:50:37;;;;;;;8.00;4.70;;;;;;;;;;105308;1257;60482;-47
2023/03/01 06:53:06;;;;;;;11.00;5.60;;;;;;;;;;104987;1259;60435;-46
2023/03/01 06:55:34;;;;;;;11.40;6.40;;;;;;;;;;105002;1254;62171;-45
2023/03/01 06:58:02;;;;;;;9.00;5.80;;;;;;;;;;105121;1260;60520;-45
2023/03/01 07:00:30;;;;;;;7.60;4.10;;;;;;;;;;105014;1257;60771;-46
2023/03/01 07:02:59;;;;;;;10.40;5.60;;;;;;;;;;105155;1260;60537;-44
2023/03/01 07:05:28;;;;;;;11.80;5.70;;;;;;;;;;106337;1254;60327;-45
2023/03/01 07:07:56;;;;;;;7.10;5.00;;;;;;;;;;105013;1256;61255;-48
2023/03/01 07:10:24;;;;;;;8.80;3.90;;;;;;;;;;105797;1260;60427;-47
2023/03/01 07:12:56;;;;;;;9.10;5.50;;;;;;;;;;104743;1260;60535;-47
2023/03/01 07:15:24;;;;;;;9.90;6.00;;;;;;;;;;104998;1256;60444;-47
2023/03/01 07:17:52;;;;;;;9.20;5.40;;;;;;;;;;105374;1256;60415;-47
2023/03/01 07:20:25;;;;;;;9.00;5.90;;;;;;;;;;105183;1254;62703;-46
2023/03/01 07:22:53;;;;;;;10.80;5.40;;;;;;;;;;104957;1254;60415;-46
2023/03/01 07:25:21;;;;;;;7.40;4.90;;;;;;;;;;104738;1254;60431;-47
2023/03/01 07:27:51;;;;;;;10.40;5.70;;;;;;;;;;104659;1259;60510;-48
2023/03/01 07:30:20;;;;;;;9.10;5.90;;;;;;;;;;108978;1254;58444;-47
2023/03/01 07:32:48;;;;;;;8.60;5.00;;;;;;;;;;107548;1254;61781;-49
2023/03/01 07:35:16;;;;;;;10.60;5.90;;;;;;;;;;105635;1256;60513;-47
2023/03/01 07:37:44;;;;;;;12.60;7.30;;;;;;;;;;104733;1254;61192;-47
2023/03/01 07:40:12;;;;;;;10.60;6.80;;;;;;;;;;104724;1255;60555;-48
2023/03/01 07:42:40;;;;;;;13.90;7.90;;;;;;;;;;105066;1254;62144;-47
2023/03/01 07:45:28;;;;;;;10.10;6.50;;;;;;;;;;104848;1259;63604;-47
2023/03/01 07:47:56;;;;;;;11.10;6.00;;;;;;;;;;106419;1254;60427;-47
2023/03/01 07:50:24;;;;;;;9.40;5.70;;;;;;;;;;104955;1254;60533;-48
2023/03/01 07:52:52;;;;;;;11.30;6.00;;;;;;;;;;108006;1254;60542;-49
2023/03/01 07:55:20;;;;;;;10.90;5.70;;;;;;;;;;106218;1256;61897;-48
2023/03/01 07:57:48;;;;;;;10.90;5.80;;;;;;;;;;104654;1255;62649;-50
2023/03/01 08:00:16;;;;;;;10.30;5.60;;;;;;;;;;108145;1254;60406;-49
2023/03/01 08:02:45;;;;;;;10.80;5.60;;;;;;;;;;105657;1259;61083;-48
2023/03/01 08:05:18;;;;;;;9.00;5.80;;;;;;;;;;104535;1255;60654;-47
2023/03/01 08:07:46;;;;;;;10.60;6.00;;;;;;;;;;104740;1257;60530;-49
2023/03/01 08:10:14;;;;;;;10.40;6.90;;;;;;;;;;104676;1254;62192;-49
2023/03/01 08:12:42;;;;;;;10.80;6.40;;;;;;;;;;104640;1257;60481;-48
2023/03/01 08:15:10;;;;;;;9.70;7.00;;;;;;;;;;105542;1254;61122;-50
2023/03/01 08:17:41;;;;;;;7.90;5.20;;;;;;;;;;104494;1257;60549;-50
2023/03/01 08:20:12;;;;;;;10.00;5.40;;;;;;;;;;104818;1254;60447;-49
2023/03/01 08:22:40;;;;;;;9.50;5.60;;;;;;;;;;104895;1254;61241;-46
2023/03/01 08:25:08;;;;;;;11.80;5.80;;;;;;;;;;105030;1257;60533;-49
2023/03/01 08:27:36;;;;;;;9.90;5.20;;;;;;;;;;109018;1255;60431;-51
2023/03/01 08:30:06;;;;;;;9.40;5.50;;;;;;;;;;107442;1254;60408;-51
2023/03/01 08:32:35;;;;;;;9.10;5.20;;;;;;;;;;104953;1254;60561;-50
2023/03/01 08:35:04;;;;;;;7.40;4.30;;;;;;;;;;107006;1254;63255;-50
2023/03/01 08:37:33;;;;;;;10.40;5.70;;;;;;;;;;105030;1254;60540;-50
2023/03/01 08:40:01;;;;;;;9.00;6.20;;;;;;;;;;105112;1254;60709;-49
2023/03/01 08:42:29;;;;;;;6.70;5.30;;;;;;;;;;106575;1259;60542;-49
2023/03/01 08:44:57;;;;;;;10.60;5.70;;;;;;;;;;104843;1254;61650;-50
2023/03/01 08:47:26;;;;;;;8.20;4.60;;;;;;;;;;106610;1254;62148;-48
2023/03/01 08:49:54;;;;;;;9.20;5.20;;;;;;;;;;105074;1254;60459;-48
2023/03/01 08:52:25;;;;;;;8.40;5.10;;;;;;;;;;105358;1260;60940;-50
2023/03/01 08:54:56;;;;;;;6.00;5.10;;;;;;;;;;105394;1257;60540;-50
2023/03/01 08:57:25;;;;;;;10.80;5.70;;;;;;;;;;104874;1257;60335;-47
2023/03/01 08:59:56;;;;;;;10.20;5.80;;;;;;;;;;106167;1260;61029;-50
2023/03/01 09:02:24;;;;;;;7.70;4.80;;;;;;;;;;104770;1260;60461;-48
2023/03/01 09:04:53;;;;;;;7.90;5.20;;;;;;;;;;108806;1254;60730;-50
2023/03/01 09:07:28;;;;;;;12.30;6.60;;;;;;;;;;105013;1255;61827;-49
2023/03/01 09:09:56;;;;;;;8.70;5.60;;;;;;;;;;107140;1254;60460;-48
2023/03/01 09:12:24;;;;;;;8.70;4.60;;;;;;;;;;104815;1256;61145;-50
2023/03/01 09:14:53;;;;;;;8.10;5.20;;;;;;;;;;105449;1254;60341;-50
2023/03/01 09:17:21;;;;;;;7.90;5.50;;;;;;;;;;104597;1254;60889;-49
2023/03/01 09:19:50;;;;;;;6.70;4.80;;;;;;;;;;104704;1254;60539;-49
2023/03/01 09:22:18;;;;;;;10.00;5.90;;;;;;;;;;105242;1258;58893;-47
2023/03/01 09:24:46;;;;;;;9.20;5.70;;;;;;;;;;108563;1255;62237;-50
2023/03/01 09:27:18;;;;;;;11.00;5.40;;;;;;;;;;104743;1257;60461;-48
2023/03/01 09:29:48;;;;;;;9.00;6.10;;;;;;;;;;104762;1254;60434;-48
2023/03/01 09:32:19;;;;;;;10.40;6.60;;;;;;;;;;104623;1254;60425;-49
2023/03/01 09:35:06;;;;;;;9.60;6.20;;;;;;;;;;108905;1254;59273;-50
2023/03/01 09:37:35;;;;;;;8.40;6.20;;;;;;;;;;105893;1254;62225;-49
2023/03/01 09:40:07;;;;;;;8.10;5.30;;;;;;;;;;106415;1254;59733;-49
2023/03/01 09:42:35;;;;;;;7.70;5.80;;;;;;;;;;105328;1254;60369;-49
2023/03/01 09:45:24;;;;;;;6.70;4.90;;;;;;;;;;104729;1260;60425;-50
2023/03/01 09:47:53;;;;;;;8.10;5.40;;;;;;;;;;104863;1255;60456;-50
2023/03/01 09:50:21;;;;;;;7.90;5.10;;;;;;;;;;106357;1259;61649;-49
2023/03/01 09:53:06;;;;;;;5.90;4.60;;;;;;;;;;105095;1254;62236;-48
2023/03/01 09:55:41;;;;;;;9.10;5.70;;;;;;;;;;105706;1259;60737;-49
2023/03/01 09:58:29;;;;;;;11.50;5.90;;;;;;;;;;105204;1257;60365;-52
2023/03/01 10:00:59;;;;;;;8.00;5.30;;;;;;;;;;104999;1254;60434;-51
2023/03/01 10:03:31;;;;;;;7.00;5.10;;;;;;;;;;104729;1254;61158;-51
2023/03/01 10:06:11;;;;;;;6.80;5.30;;;;;;;;;;104909;1254;60450;-52
2023/03/01 10:09:00;;;;;;;8.70;5.70;;;;;;;;;;104953;1256;61080;-51
2023/03/01 10:11:30;;;;;;;8.90;4.90;;;;;;;;;;104791;1259;59638;-50
2023/03/01 10:14:01;;;;;;;10.80;6.30;;;;;;;;;;105005;1260;62186;-50
2023/03/01 10:16:38;;;;;;;9.60;5.20;;;;;;;;;;104945;1254;62442;-51
2023/03/01 10:19:06;;;;;;;10.10;6.00;;;;;;;;;;105047;1260;60428;-47
2023/03/01 10:21:35;;;;;;;6.60;5.10;;;;;;;;;;104663;1254;60592;-50
2023/03/01 10:24:13;;;;;;;6.20;4.40;;;;;;;;;;106407;1255;60524;-49
2023/03/01 10:26:48;;;;;;;10.10;5.20;;;;;;;;;;104790;1254;60489;-48
2023/03/01 10:29:16;;;;;;;6.10;4.40;;;;;;;;;;105294;1254;62112;-49
2023/03/01 10:31:46;;;;;;;8.40;5.40;;;;;;;;;;104714;1254;60482;-49
2023/03/01 10:34:19;;;;;;;7.00;4.60;;;;;;;;;;107772;1256;61663;-50
2023/03/01 10:36:48;;;;;;;8.00;5.10;;;;;;;;;;104827;1256;60478;-51
2023/03/01 10:39:20;;;;;;;7.30;4.50;;;;;;;;;;104247;1261;61605;-49
2023/03/01 10:41:57;;;;;;;6.30;4.00;;;;;;;;;;104697;1255;61965;-49
2023/03/01 10:44:34;;;;;;;6.40;3.90;;;;;;;;;;104933;1256;60427;-48
2023/03/01 10:47:05;;;;;;;9.00;4.70;;;;;;;;;;104835;1259;60776;-50
2023/03/01 10:49:34;;;;;;;7.30;3.70;;;;;;;;;;105108;1259;60412;-50
2023/03/01 10:52:19;;;;;;;6.70;4.00;;;;;;;;;;104963;1254;60440;-48
2023/03/01 10:55:08;;;;;;;8.60;4.20;;;;;;;;;;105497;1254;62138;-49
2023/03/01 10:57:40;;;;;;;4.30;3.60;;;;;;;;;;106068;1259;60405;-51
2023/03/01 11:00:12;;;;;;;9.40;3.70;;;;;;;;;;105678;1251;60859;-48
2023/03/01 11:02:40;;;;;;;7.30;4.50;;;;;;;;;;104897;1251;60498;-48
2023/03/01 11:05:19;;;;;;;8.10;4.00;;;;;;;;;;105218;1251;60510;-49
2023/03/01 11:07:53;;;;;;;7.50;5.30;;;;;;;;;;105670;1251;62141;-51
2023/03/01 11:10:34;;;;;;;7.50;3.90;;;;;;;;;;105158;1256;60720;-46
2023/03/01 11:13:15;;;;;;;5.20;3.20;;;;;;;;;;104887;1251;60802;-50
2023/03/01 11:15:58;;;;;;;7.50;3.10;;;;;;;;;;105124;1251;60297;-46
2023/03/01 11:18:26;;;;;;;5.00;3.20;;;;;;;;;;105128;1251;60647;-49
2023/03/01 11:21:13;;;;;;;3.50;2.30;;;;;;;;;;106183;1251;63359;-49
2023/03/01 11:23:41;;;;;;;5.90;2.30;;;;;;;;;;105090;1251;60565;-48
2023/03/01 11:26:10;;;;;;;2.80;2.20;;;;;;;;;;105009;1254;60342;-49
2023/03/01 11:28:40;;;;;;;4.20;2.30;;;;;;;;;;106092;1251;60527;-48
2023/03/01 11:31:11;;;;;;;6.40;2.70;;;;;;;;;;108502;1251;58441;-49
2023/03/01 11:33:59;;;;;;;5.10;3.30;;;;;;;;;;105109;1251;62324;-49
2023/03/01 11:36:36;;;;;;;4.30;2.40;;;;;;;;;;105126;1251;60354;-52
2023/03/01 11:39:12;;;;;;;6.00;3.30;;;;;;;;;;105057;1256;60805;-50
2023/03/01 11:41:41;;;;;;;5.90;2.80;;;;;;;;;;107311;1254;60405;-50
2023/03/01 11:44:16;;;;;;;5.20;3.00;;;;;;;;;;106832;1253;60727;-51
2023/03/01 11:46:48;;;;;;;5.30;2.80;;;;;;;;;;106334;1251;62260;-51
2023/03/01 11:49:35;;;;;;;5.00;2.90;;;;;;;;;;105697;1253;60479;-50
2023/03/01 11:52:10;;;;;;;3.70;1.90;;;;;;;;;;105215;1251;60783;-51
2023/03/01 11:54:42;;;;;;;4.40;2.40;;;;;;;;;;105430;1251;60749;-51
2023/03/01 11:57:29;;;;;;;4.50;2.60;;;;;;;;;;105202;1255;60523;-51
2023/03/01 12:00:19;;;;;;;4.40;1.80;;;;;;;;;;109327;1251;61924;-52
2023/03/01 12:02:56;;;;;;;5.80;2.80;;;;;;;;;;105426;1254;60527;-50
2023/03/01 12:05:43;;;;;;;3.30;2.20;;;;;;;;;;105348;1255;61169;-50
2023/03/01 12:08:20;;;;;;;3.20;2.60;;;;;;;;;;105223;1257;60546;-50
2023/03/01 12:10:49;;;;;;;4.90;2.70;;;;;;;;;;105433;1256;60435;-50
2023/03/01 12:13:27;;;;;;;5.10;3.90;;;;;;;;;;105233;1251;62328;-51
2023/03/01 12:16:15;;;;;;;6.50;3.70;;;;;;;;;;105003;1251;60476;-51
2023/03/01 12:19:03;;;;;;;4.50;3.00;;;;;;;;;;105611;1251;60869;-49
2023/03/01 12:21:43;;;;;;;7.60;3.60;;;;;;;;;;105354;1251;60423;-50
2023/03/01 12:24:30;;;;;;;5.70;3.30;;;;;;;;;;105026;1256;60296;-49
2023/03/01 12:27:18;;;;;;;5.70;3.30;;;;;;;;;;105330;1251;62910;-50
2023/03/01 12:30:05;;;;;;;5.70;3.30;;;;;;;;;;106405;1253;60436;-51
2023/03/01 12:32:36;;;;;;;7.60;3.00;;;;;;;;;;105184;1252;60562;-50
2023/03/01 12:35:34;;;;;;;7.20;3.00;;;;;;;;;;105898;1250;60543;-51
2023/03/01 12:38:05;;;;;;;6.80;3.20;;;;;;;;;;104632;1251;60976;-49
2023/03/01 12:40:41;;;;;;;5.90;3.30;;;;;;;;;;105265;1251;62073;-50
2023/03/01 12:43:16;;;;;;;5.60;3.10;;;;;;;;;;105073;1251;60385;-50
2023/03/01 12:45:54;;;;;;;8.90;3.70;;;;;;;;;;106234;1251;60580;-51
2023/03/01 12:48:24;;;;;;;4.70;3.40;;;;;;;;;;105993;1254;60380;-50
2023/03/01 12:50:53;;;;;;;4.10;2.50;;;;;;;;;;105043;1256;60420;-50
2023/03/01 12:53:25;;;;;;;6.80;3.70;;;;;;;;;;106413;1251;61836;-50
2023/03/01 12:55:54;;;;;;;5.10;2.70;;;;;;;;;;107180;1251;62831;-51
2023/03/01 12:58:28;;;;;;;6.50;3.20;;;;;;;;;;105146;1251;60655;-45
2023/03/01 13:01:19;;;;;;;6.20;3.00;;;;;;;;;;105259;1251;60543;-49
2023/03/01 13:04:06;;;;;;;3.70;2.80;;;;;;;;;;105776;1251;60297;-51
2023/03/01 13:06:37;;;;;;;6.10;2.80;;;;;;;;;;105158;1251;61953;-49
2023/03/01 13:09:23;;;;;;;5.30;2.90;;;;;;;;;;105622;1251;60424;-50
2023/03/01 13:11:50;;;;;;;5.20;3.10;;;;;;;;;;105395;1251;60424;-51
2023/03/01 13:14:25;;;;;;;4.90;2.80;;;;;;;;;;105208;1256;60448;-49
2023/03/01 13:16:53;;;;;;;6.90;2.90;;;;;;;;;;105232;1251;60607;-47
2023/03/01 13:19:22;;;;;;;9.00;3.60;;;;;;;;;;105015;1251;61006;-51
2023/03/01 13:21:54;;;;;;;6.10;3.60;;;;;;;;;;105270;1254;60569;-51
2023/03/01 13:24:23;;;;;;;9.00;4.50;;;;;;;;;;104895;1251;60785;-52
2023/03/01 13:27:11;;;;;;;6.60;4.00;;;;;;;;;;109208;1251;58472;-50
2023/03/01 13:29:44;;;;;;;5.40;3.50;;;;;;;;;;109010;1254;59067;-48
2023/03/01 13:32:39;;;;;;;8.60;3.90;;;;;;;;;;106078;1254;61152;-49
2023/03/01 13:35:14;;;;;;;12.80;4.30;;;;;;;;;;105632;1253;60357;-48
2023/03/01 13:37:44;;;;;;;6.70;3.80;;;;;;;;;;105712;1255;60505;-47
2023/03/01 13:40:22;;;;;;;6.40;3.90;;;;;;;;;;107067;1255;60331;-48
2023/03/01 13:42:50;;;;;;;9.80;4.90;;;;;;;;;;105363;1251;60444;-48
2023/03/01 13:45:33;;;;;;;5.90;3.20;;;;;;;;;;105413;1251;62203;-46
2023/03/01 13:48:08;;;;;;;7.00;3.90;;;;;;;;;;105536;1254;60489;-49
2023/03/01 13:50:38;;;;;;;8.00;4.40;;;;;;;;;;105342;1251;60413;-48
2023/03/01 13:53:10;;;;;;;8.80;4.50;;;;;;;;;;105461;1251;60418;-49
2023/03/01 13:55:41;;;;;;;9.10;3.50;;;;;;;;;;105353;1251;60427;-48
2023/03/01 13:58:16;;;;;;;8.80;4.50;;;;;;;;;;105568;1255;61889;-47
2023/03/01 14:00:44;;;;;;;8.70;5.80;;;;;;;;;;105346;1251;60500;-47
2023/03/01 14:03:19;;;;;;;9.00;4.50;;;;;;;;;;106923;1251;60727;-49
2023/03/01 14:06:08;;;;;;;8.90;4.90;;;;;;;;;;106261;1253;60832;-47
2023/03/01 14:08:43;;;;;;;9.40;4.30;;;;;;;;;;105584;1251;60430;-49
2023/03/01 14:11:20;;;;;;;5.50;3.70;;;;;;;;;;105288;1251;61860;-50
2023/03/01 14:14:00;;;;;;;8.10;3.60;;;;;;;;;;105559;1253;60468;-49
2023/03/01 14:16:29;;;;;;;5.50;3.30;;;;;;;;;;105177;1253;60492;-47
2023/03/01 14:18:57;;;;;;;6.70;3.50;;;;;;;;;;105471;1255;60555;-51
2023/03/01 14:21:25;;;;;;;5.20;3.10;;;;;;;;;;105800;1251;60512;-50
2023/03/01 14:23:53;;;;;;;7.70;3.70;;;;;;;;;;105300;1255;61043;-49
2023/03/01 14:26:21;;;;;;;3.90;2.70;;;;;;;;;;105332;1256;60341;-49
2023/03/01 14:28:49;;;;;;;6.30;2.70;;;;;;;;;;105898;1251;60868;-51
2023/03/01 14:31:29;;;;;;;6.40;3.30;;;;;;;;;;105457;1256;60438;-49
2023/03/01 14:34:02;;;;;;;;;;;;;;;;;;105320;1251;60409;-48
2023/03/01 14:36:31;;;;;;;5.60;3.10;;;;;;;;;;105253;1251;63203;-50
2023/03/01 14:39:04;;;;;;;6.50;3.20;;;;;;;;;;106742;1253;206157;-49
2023/03/01 14:42:48;;;;;;;7.60;3.40;;;;;;;;;;102275;1289;600461;-47
2023/03/01 14:45:17;;;;;;;7.10;3.70;;;;;;;;;;105776;1263;59129;-51
2023/03/01 14:47:46;;;;;;;8.30;3.80;;;;;;;;;;104815;1269;59032;-49
2023/03/01 14:50:19;;;;;;;7.30;4.40;;;;;;;;;;104638;1264;60705;-49
2023/03/01 14:52:48;;;;;;;12.00;5.20;;;;;;;;;;104394;1268;59065;-47
2023/03/01 14:55:18;;;;;;;10.80;4.40;;;;;;;;;;104414;1267;152628;-51